createdAt,value
2023-01-23T00:01:08.995Z,28.90
2023-01-23T00:03:36.083Z,42.00
2023-01-23T00:06:06.068Z,28.90
2023-01-23T00:08:33.364Z,30.10
2023-01-23T00:11:00.488Z,30.70
2023-01-23T00:13:27.611Z,29.80
2023-01-23T00:15:54.909Z,34.10
2023-01-23T00:18:21.996Z,26.00
2023-01-23T00:20:49.118Z,24.80
2023-01-23T00:23:16.301Z,33.50
2023-01-23T00:25:43.422Z,23.90
2023-01-23T00:28:10.604Z,29.60
2023-01-23T00:30:37.796Z,36.20
2023-01-23T00:33:04.976Z,25.80
2023-01-23T00:35:34.394Z,35.80
2023-01-23T00:38:01.588Z,24.70
2023-01-23T00:40:28.704Z,25.80
2023-01-23T00:42:55.835Z,30.90
2023-01-23T00:45:23.589Z,28.30
2023-01-23T00:47:50.656Z,25.30
2023-01-23T00:50:18.028Z,34.80
2023-01-23T00:52:45.452Z,27.70
2023-01-23T00:55:14.083Z,20.20
2023-01-23T00:57:41.211Z,27.10
2023-01-23T01:00:09.027Z,26.50
2023-01-23T01:02:36.329Z,29.70
2023-01-23T01:05:03.927Z,24.50
2023-01-23T01:07:31.026Z,22.40
2023-01-23T01:09:58.144Z,28.10
2023-01-23T01:12:25.330Z,27.60
2023-01-23T01:14:52.378Z,22.80
2023-01-23T01:17:19.495Z,46.70
2023-01-23T01:19:48.485Z,22.20
2023-01-23T01:22:15.688Z,27.90
2023-01-23T01:24:42.834Z,21.50
2023-01-23T01:27:10.069Z,30.10
2023-01-23T01:29:37.287Z,31.90
2023-01-23T01:32:05.192Z,29.50
2023-01-23T01:34:32.296Z,27.90
2023-01-23T01:36:59.568Z,30.40
2023-01-23T01:39:26.696Z,23.90
2023-01-23T01:41:54.271Z,33.60
2023-01-23T01:44:22.798Z,23.60
2023-01-23T01:46:50.010Z,26.50
2023-01-23T01:49:21.782Z,31.50
2023-01-23T01:51:55.989Z,25.60
2023-01-23T01:54:33.523Z,31.20
2023-01-23T01:57:19.007Z,24.70
2023-01-23T01:59:47.803Z,26.50
2023-01-23T02:02:17.944Z,26.80
2023-01-23T02:04:48.438Z,34.20
2023-01-23T02:07:28.752Z,30.00
2023-01-23T02:09:55.993Z,36.20
2023-01-23T02:12:23.452Z,28.70
2023-01-23T02:14:50.570Z,30.60
2023-01-23T02:17:17.666Z,20.90
2023-01-23T02:19:52.229Z,32.50
2023-01-23T02:22:56.066Z,20.60
2023-01-23T02:25:27.331Z,26.70
2023-01-23T02:27:54.531Z,31.20
2023-01-23T02:30:22.465Z,21.50
2023-01-23T02:32:51.238Z,38.70
2023-01-23T02:35:29.548Z,32.80
2023-01-23T02:38:00.935Z,23.40
2023-01-23T02:40:39.124Z,26.10
2023-01-23T02:43:11.352Z,33.60
2023-01-23T02:45:41.569Z,30.00
2023-01-23T02:48:09.047Z,29.70
2023-01-23T02:50:37.104Z,23.60
2023-01-23T02:53:04.323Z,23.10
2023-01-23T02:55:33.264Z,26.70
2023-01-23T02:58:19.704Z,23.60
2023-01-23T03:00:47.384Z,21.90
2023-01-23T03:03:16.175Z,37.90
2023-01-23T03:05:43.319Z,31.90
2023-01-23T03:08:10.684Z,33.70
2023-01-23T03:10:37.747Z,24.50
2023-01-23T03:13:07.530Z,46.90
2023-01-23T03:15:35.522Z,24.30
2023-01-23T03:18:02.739Z,33.50
2023-01-23T03:20:31.132Z,43.60
2023-01-23T03:22:58.226Z,28.80
2023-01-23T03:25:28.364Z,37.10
2023-01-23T03:27:55.517Z,27.30
2023-01-23T03:30:22.743Z,33.10
2023-01-23T03:32:51.828Z,22.30
2023-01-23T03:35:22.033Z,33.30
2023-01-23T03:37:52.398Z,35.80
2023-01-23T03:40:40.335Z,45.90
2023-01-23T03:43:07.606Z,40.60
2023-01-23T03:45:35.900Z,29.80
2023-01-23T03:48:03.323Z,34.70
2023-01-23T03:50:30.544Z,32.40
2023-01-23T03:52:57.685Z,28.30
2023-01-23T03:55:25.565Z,40.70
2023-01-23T03:57:53.604Z,40.90
2023-01-23T04:00:31.805Z,28.10
2023-01-23T04:03:04.504Z,36.40
2023-01-23T04:05:31.890Z,26.30
2023-01-23T04:07:59.472Z,48.00
2023-01-23T04:10:27.204Z,38.00
2023-01-23T04:12:55.949Z,30.40
2023-01-23T04:15:23.489Z,31.70
2023-01-23T04:17:51.549Z,36.60
2023-01-23T04:20:19.001Z,33.30
2023-01-23T04:22:46.341Z,42.20
2023-01-23T04:25:13.995Z,39.00
2023-01-23T04:27:41.509Z,38.60
2023-01-23T04:30:10.028Z,32.00
2023-01-23T04:32:37.287Z,45.60
2023-01-23T04:35:04.617Z,24.10
2023-01-23T04:37:31.905Z,37.40
2023-01-23T04:39:59.454Z,37.40
2023-01-23T04:42:26.820Z,48.80
2023-01-23T04:45:08.321Z,45.50
2023-01-23T04:48:03.125Z,38.50
2023-01-23T04:50:30.328Z,34.60
2023-01-23T04:52:58.548Z,41.90
2023-01-23T04:55:26.297Z,42.90
2023-01-23T04:57:54.667Z,40.70
2023-01-23T05:00:24.744Z,35.40
2023-01-23T05:02:52.254Z,39.60
2023-01-23T05:05:21.404Z,44.40
2023-01-23T05:07:51.039Z,41.00
2023-01-23T05:10:18.507Z,39.10
2023-01-23T05:12:46.749Z,61.50
2023-01-23T05:15:13.969Z,45.10
2023-01-23T05:17:41.784Z,44.10
2023-01-23T05:20:11.023Z,37.30
2023-01-23T05:22:39.273Z,38.70
2023-01-23T05:25:07.118Z,49.70
2023-01-23T05:27:34.478Z,49.60
2023-01-23T05:30:01.733Z,45.20
2023-01-23T05:32:32.089Z,41.40
2023-01-23T05:35:19.733Z,55.90
2023-01-23T05:37:53.195Z,51.20
2023-01-23T05:40:23.008Z,56.90
2023-01-23T05:43:19.577Z,46.80
2023-01-23T05:46:05.667Z,56.90
2023-01-23T05:48:53.593Z,61.40
2023-01-23T05:51:21.362Z,64.60
2023-01-23T05:53:48.874Z,69.00
2023-01-23T05:56:16.845Z,57.00
2023-01-23T05:59:05.553Z,52.00
2023-01-23T06:01:47.205Z,60.50
2023-01-23T06:04:49.637Z,51.40
2023-01-23T06:07:20.092Z,49.40
2023-01-23T06:09:47.902Z,53.40
2023-01-23T06:12:15.123Z,54.50
2023-01-23T06:14:42.942Z,55.50
2023-01-23T10:40:59.700Z,27.80
2023-01-23T10:43:26.955Z,23.00
2023-01-23T10:45:54.131Z,32.10
2023-01-23T10:48:51.239Z,24.40
2023-01-23T10:51:37.269Z,27.40
2023-01-23T10:54:33.992Z,16.80
2023-01-23T10:57:02.367Z,35.90
2023-01-23T10:59:48.933Z,36.40
2023-01-23T11:02:16.218Z,23.60
2023-01-23T11:04:45.572Z,23.80
2023-01-23T11:07:23.783Z,21.50
2023-01-23T11:09:57.932Z,27.30
2023-01-23T11:12:30.084Z,20.00
2023-01-23T11:15:14.053Z,28.00
2023-01-23T11:20:40.592Z,21.10
2023-01-23T11:23:13.704Z,21.00
2023-01-23T11:25:43.537Z,21.60
2023-01-23T11:28:31.063Z,23.10
2023-01-23T11:31:15.245Z,26.40
2023-01-23T11:34:05.574Z,23.80
2023-01-23T11:36:41.580Z,22.50
2023-01-23T11:39:31.497Z,18.90
2023-01-23T11:41:58.803Z,22.40
2023-01-23T11:44:28.224Z,22.70
2023-01-23T11:47:16.676Z,23.70
2023-01-23T11:50:11.885Z,20.10
2023-01-23T11:52:39.265Z,26.50
2023-01-23T11:55:25.706Z,17.80
2023-01-23T11:58:22.041Z,24.30
2023-01-23T12:00:49.214Z,16.50
2023-01-23T12:03:54.634Z,26.60
2023-01-23T12:06:35.305Z,14.80
2023-01-23T12:09:16.261Z,17.30
2023-01-23T12:12:01.021Z,24.90
2023-01-23T12:14:56.870Z,22.10
2023-01-23T12:17:55.247Z,25.40
2023-01-23T12:20:36.406Z,29.60
2023-01-23T12:23:07.707Z,26.70
2023-01-23T12:25:36.108Z,24.70
2023-01-23T12:28:36.099Z,23.20
2023-01-23T12:31:21.991Z,28.80
2023-01-23T12:34:04.424Z,32.30
2023-01-23T12:36:59.470Z,28.90
2023-01-23T12:39:48.692Z,29.80
2023-01-23T12:42:29.795Z,20.80
2023-01-23T12:45:12.166Z,28.00
2023-01-23T12:47:47.869Z,22.50
2023-01-23T12:50:20.062Z,28.30
2023-01-23T12:52:51.861Z,26.40
2023-01-23T12:55:24.866Z,25.70
2023-01-23T12:58:07.229Z,24.80
2023-01-23T13:01:04.141Z,24.10
2023-01-23T13:04:02.828Z,24.80
2023-01-23T13:06:40.607Z,22.80
2023-01-23T13:09:23.107Z,28.10
2023-01-23T13:12:28.763Z,19.50
2023-01-23T13:15:22.734Z,24.40
2023-01-23T13:17:57.986Z,23.10
2023-01-23T13:20:52.394Z,23.50
2023-01-23T13:23:26.947Z,26.90
2023-01-23T13:26:12.457Z,20.60
2023-01-23T13:28:48.422Z,25.80
2023-01-23T13:31:35.355Z,18.20
2023-01-23T13:34:14.978Z,25.70
2023-01-23T13:36:46.717Z,25.50
2023-01-23T13:39:16.816Z,26.10
2023-01-23T13:41:44.881Z,26.90
2023-01-23T13:44:35.749Z,23.30
2023-01-23T14:22:51.354Z,18.00
2023-01-23T14:25:18.828Z,21.10
2023-01-23T14:27:54.414Z,15.50
2023-01-23T14:30:27.440Z,20.60
2023-01-23T14:32:54.878Z,23.50
2023-01-23T14:35:27.784Z,22.20
2023-01-23T18:35:15.903Z,34.10
2023-01-23T18:38:04.840Z,33.80
2023-01-23T18:40:43.569Z,37.80
2023-01-23T18:43:30.556Z,28.30
2023-01-23T18:46:01.309Z,35.30
2023-01-23T18:48:30.620Z,27.70
2023-01-23T18:51:02.037Z,33.70
2023-01-23T18:53:30.944Z,26.20
2023-01-23T18:56:22.744Z,34.10
2023-01-23T18:59:27.071Z,35.00
2023-01-23T19:02:18.118Z,28.70
2023-01-23T19:05:01.508Z,34.00
2023-01-23T19:07:31.695Z,24.40
2023-01-23T19:10:02.008Z,28.80
2023-01-23T19:12:36.804Z,31.50
2023-01-23T19:15:29.255Z,29.60
2023-01-23T19:18:31.507Z,39.40
2023-01-23T19:21:17.150Z,27.80
2023-01-23T19:24:02.893Z,34.80
2023-01-23T19:26:33.729Z,37.20
2023-01-23T19:29:19.062Z,27.10
2023-01-23T19:32:06.128Z,34.50
2023-01-23T19:34:36.304Z,32.80
2023-01-23T19:37:07.661Z,31.30
2023-01-23T19:39:37.046Z,35.90
2023-01-23T19:42:13.335Z,29.00
2023-01-23T19:44:42.249Z,35.60
2023-01-23T19:47:11.155Z,27.80
2023-01-23T19:49:40.297Z,32.20
2023-01-23T19:52:13.452Z,29.60
2023-01-23T19:54:42.271Z,31.20
2023-01-23T19:57:11.092Z,34.30
2023-01-23T19:59:39.738Z,30.40
2023-01-23T20:02:20.710Z,39.90
2023-01-23T20:04:49.467Z,29.90
2023-01-23T20:07:18.890Z,35.50
2023-01-23T20:09:47.738Z,32.30
2023-01-23T20:12:17.796Z,38.90
2023-01-23T20:14:46.557Z,36.90
2023-01-23T20:17:15.104Z,32.90
2023-01-23T20:19:43.567Z,29.90
2023-01-23T20:22:12.491Z,38.30
2023-01-23T20:24:41.105Z,27.90
2023-01-23T20:27:09.743Z,37.40
2023-01-23T20:29:39.400Z,37.50
2023-01-23T20:32:10.373Z,39.60
2023-01-23T20:34:38.824Z,33.10
2023-01-23T20:37:07.395Z,32.70
2023-01-23T20:39:40.890Z,32.90
2023-01-23T20:42:11.271Z,35.70
2023-01-23T20:44:41.999Z,32.40
2023-01-23T20:47:14.983Z,32.90
2023-01-23T20:49:43.794Z,31.50
2023-01-23T20:52:31.558Z,34.20
2023-01-23T20:55:00.971Z,28.10
2023-01-23T20:57:49.829Z,36.60
2023-01-23T21:00:31.382Z,53.20
2023-01-23T21:03:06.810Z,30.30
2023-01-23T21:05:35.667Z,30.90
2023-01-23T21:08:05.539Z,32.80
2023-01-23T21:10:34.231Z,29.30
2023-01-23T21:13:02.780Z,35.00
2023-01-23T21:15:33.189Z,33.90
2023-01-23T21:18:02.048Z,31.40
2023-01-23T21:20:30.623Z,30.40
2023-01-23T21:22:59.408Z,31.00
2023-01-23T21:25:29.531Z,31.90
2023-01-23T21:27:58.318Z,33.30
2023-01-23T21:30:27.038Z,29.80
2023-01-23T21:32:55.420Z,25.50
2023-01-23T21:35:24.570Z,28.00
2023-01-23T21:37:53.873Z,24.10
2023-01-23T21:40:22.405Z,32.40
2023-01-23T21:42:51.047Z,25.60
2023-01-23T21:45:20.050Z,31.00
2023-01-23T21:47:48.773Z,37.10
2023-01-23T21:50:19.179Z,36.60
2023-01-23T21:52:47.862Z,42.80
2023-01-23T21:55:16.432Z,30.00
2023-01-23T21:57:45.013Z,29.70
2023-01-23T22:00:32.395Z,33.10
2023-01-23T22:03:01.172Z,23.30
2023-01-23T22:05:30.353Z,26.90
2023-01-23T22:07:59.806Z,25.10
2023-01-23T22:10:29.093Z,27.70
2023-01-23T22:12:58.998Z,28.80
2023-01-23T22:15:27.490Z,26.70
2023-01-23T22:17:57.779Z,33.30
2023-01-23T22:20:28.035Z,26.80
2023-01-23T22:22:56.598Z,26.80
2023-01-23T22:25:24.880Z,28.00
2023-01-23T22:27:53.953Z,28.70
2023-01-23T22:30:23.139Z,22.80
2023-01-23T22:32:51.702Z,26.50
2023-01-23T22:35:23.055Z,34.20
2023-01-23T22:37:52.272Z,25.80
2023-01-23T22:40:20.727Z,29.10
2023-01-23T22:42:49.420Z,27.60
2023-01-23T22:45:19.465Z,31.30
2023-01-23T22:47:48.463Z,31.70
2023-01-23T22:50:19.539Z,31.20
2023-01-23T22:52:48.307Z,37.20
2023-01-23T22:55:17.196Z,28.30
2023-01-23T22:57:45.874Z,28.10
2023-01-23T23:00:16.032Z,27.50
2023-01-23T23:02:44.705Z,29.00
2023-01-23T23:05:13.320Z,30.60
2023-01-23T23:07:42.618Z,27.90
2023-01-23T23:10:13.627Z,27.30
2023-01-23T23:12:42.507Z,28.30
2023-01-23T23:15:11.140Z,30.30
2023-01-23T23:17:39.795Z,26.50
2023-01-23T23:20:09.050Z,27.70
2023-01-23T23:22:38.192Z,28.60
2023-01-23T23:25:07.121Z,22.40
2023-01-23T23:27:35.593Z,22.90
2023-01-23T23:30:04.752Z,26.30
2023-01-23T23:32:33.641Z,26.70
2023-01-23T23:35:02.778Z,27.10
2023-01-23T23:37:31.415Z,24.10
2023-01-23T23:39:59.888Z,20.20
2023-01-23T23:42:28.882Z,26.30
2023-01-23T23:44:59.418Z,38.20
2023-01-23T23:47:28.450Z,31.70
2023-01-23T23:49:56.903Z,23.30
2023-01-23T23:52:25.453Z,23.70
2023-01-23T23:54:54.360Z,29.40
2023-01-23T23:57:23.059Z,27.20
2023-01-23T23:59:52.642Z,27.60
